createdAt,value
2023-02-13T00:01:36.783Z,35.40
2023-02-13T00:04:08.655Z,35.20
2023-02-13T00:06:44.073Z,35.37
2023-02-13T00:09:16.134Z,34.73
2023-02-13T00:11:51.542Z,35.40
2023-02-13T00:14:23.673Z,34.53
2023-02-13T00:16:58.390Z,35.63
2023-02-13T00:19:27.885Z,34.60
2023-02-13T00:22:00.512Z,34.73
2023-02-13T00:24:31.712Z,35.53
2023-02-13T00:27:00.839Z,34.47
2023-02-13T00:29:57.057Z,33.37
2023-02-13T00:32:29.748Z,34.77
2023-02-13T00:34:58.613Z,33.60
2023-02-13T00:37:34.970Z,33.00
2023-02-13T00:40:03.830Z,32.00
2023-02-13T00:42:32.661Z,30.50
2023-02-13T00:45:01.584Z,30.30
2023-02-13T00:47:32.005Z,30.87
2023-02-13T00:50:01.068Z,29.70
2023-02-13T00:52:29.818Z,30.50
2023-02-13T00:55:00.000Z,29.77
2023-02-13T00:57:29.482Z,28.53
2023-02-13T00:59:58.184Z,30.20
2023-02-13T01:02:27.397Z,29.30
2023-02-13T01:04:57.510Z,26.80
2023-02-13T01:07:26.481Z,27.13
2023-02-13T01:09:55.252Z,26.93
2023-02-13T01:12:25.573Z,23.93
2023-02-13T01:14:54.281Z,21.27
2023-02-13T01:17:23.100Z,22.13
2023-02-13T01:19:52.122Z,23.03
2023-02-13T01:22:20.993Z,22.93
2023-02-13T01:24:51.272Z,23.13
2023-02-13T01:27:20.041Z,22.73
2023-02-13T01:29:50.512Z,23.13
2023-02-13T01:32:19.755Z,23.20
2023-02-13T01:34:48.641Z,22.93
2023-02-13T01:37:17.577Z,23.30
2023-02-13T01:39:47.021Z,23.63
2023-02-13T01:42:18.546Z,22.87
2023-02-13T01:44:56.684Z,23.17
2023-02-13T01:47:30.356Z,22.70
2023-02-13T01:50:08.504Z,22.80
2023-02-13T01:52:39.468Z,23.10
2023-02-13T01:55:10.586Z,23.13
2023-02-13T01:57:41.265Z,22.23
2023-02-13T02:00:16.003Z,22.40
2023-02-13T02:02:51.697Z,21.43
2023-02-13T02:05:28.187Z,21.00
2023-02-13T02:07:59.272Z,20.57
2023-02-13T02:10:28.423Z,20.57
2023-02-13T02:13:03.275Z,20.77
2023-02-13T02:15:35.025Z,20.73
2023-02-13T02:18:04.885Z,20.07
2023-02-13T02:20:59.124Z,20.53
2023-02-13T02:24:01.843Z,20.83
2023-02-13T02:27:01.178Z,20.40
2023-02-13T02:30:15.259Z,20.57
2023-02-13T02:32:58.767Z,21.13
2023-02-13T02:35:42.237Z,20.87
2023-02-13T02:38:25.590Z,20.97
2023-02-13T02:41:05.607Z,21.03
2023-02-13T02:43:56.960Z,20.87
2023-02-13T02:46:33.043Z,20.30
2023-02-13T02:49:26.691Z,20.97
2023-02-13T02:52:04.253Z,22.03
2023-02-13T02:54:58.780Z,19.93
2023-02-13T02:57:53.791Z,21.77
2023-02-13T03:00:43.261Z,21.37
2023-02-13T03:03:35.627Z,20.80
2023-02-13T03:06:14.491Z,21.03
2023-02-13T03:09:04.524Z,21.03
2023-02-13T03:11:51.173Z,19.83
2023-02-13T03:14:22.621Z,19.40
2023-02-13T03:17:09.581Z,20.23
2023-02-13T03:20:11.526Z,20.43
2023-02-13T03:22:51.096Z,19.10
2023-02-13T03:25:30.512Z,17.77
2023-02-13T03:28:21.532Z,18.07
2023-02-13T03:31:01.528Z,19.40
2023-02-13T03:33:46.742Z,19.30
2023-02-13T03:36:39.396Z,18.30
2023-02-13T03:39:14.603Z,18.27
2023-02-13T03:41:47.177Z,19.40
2023-02-13T03:44:24.465Z,18.87
2023-02-13T03:46:56.989Z,23.10
2023-02-13T03:49:48.831Z,21.70
2023-02-13T03:52:23.495Z,23.60
2023-02-13T03:55:15.995Z,24.37
2023-02-13T03:58:04.362Z,23.30
2023-02-13T04:00:38.268Z,22.57
2023-02-13T04:03:14.960Z,22.70
2023-02-13T04:05:46.355Z,22.93
2023-02-13T04:08:15.481Z,23.00
2023-02-13T04:10:53.008Z,22.90
2023-02-13T04:13:28.044Z,23.23
2023-02-13T04:16:01.798Z,21.93
2023-02-13T04:18:36.143Z,22.20
2023-02-13T04:21:06.064Z,23.40
2023-02-13T04:23:36.927Z,22.63
2023-02-13T04:26:10.403Z,22.77
2023-02-13T04:28:39.116Z,22.97
2023-02-13T04:31:08.025Z,22.50
2023-02-13T04:33:36.890Z,22.33
2023-02-13T04:36:06.681Z,21.87
2023-02-13T04:38:35.409Z,19.40
2023-02-13T04:41:36.092Z,18.70
2023-02-13T04:44:04.924Z,18.53
2023-02-13T04:46:35.956Z,18.87
2023-02-13T04:49:05.328Z,17.50
2023-02-13T04:51:34.451Z,16.07
2023-02-13T04:54:03.595Z,15.73
2023-02-13T04:56:32.677Z,14.33
2023-02-13T04:59:03.394Z,13.93
2023-02-13T05:01:32.826Z,14.17
2023-02-13T05:04:02.928Z,13.87
2023-02-13T05:06:32.024Z,13.83
2023-02-13T05:09:01.077Z,13.13
2023-02-13T05:11:30.271Z,13.23
2023-02-13T05:14:00.343Z,13.77
2023-02-13T05:16:31.154Z,14.37
2023-02-13T05:19:00.068Z,14.67
2023-02-13T05:21:46.069Z,14.97
2023-02-13T05:24:15.078Z,15.10
2023-02-13T05:26:43.785Z,16.50
2023-02-13T05:29:20.453Z,14.33
2023-02-13T05:31:53.150Z,14.67
2023-02-13T05:34:22.696Z,14.57
2023-02-13T05:36:51.894Z,14.37
2023-02-13T05:39:21.396Z,15.40
2023-02-13T05:41:51.501Z,15.27
2023-02-13T05:44:20.303Z,15.10
2023-02-13T05:46:50.488Z,14.60
2023-02-13T05:49:19.415Z,14.93
2023-02-13T05:51:48.194Z,15.97
2023-02-13T05:54:17.293Z,16.43
2023-02-13T05:56:46.285Z,15.87
2023-02-13T05:59:15.810Z,15.77
2023-02-13T06:01:44.498Z,15.37
2023-02-13T06:04:17.164Z,15.40
2023-02-13T06:06:56.360Z,17.20
2023-02-13T06:09:33.110Z,17.40
2023-02-13T06:12:19.876Z,18.87
2023-02-13T06:15:00.846Z,17.57
2023-02-13T06:17:45.109Z,17.67
2023-02-13T06:20:34.968Z,18.73
2023-02-13T06:23:30.128Z,18.87
2023-02-13T06:26:10.870Z,18.70
2023-02-13T06:29:01.218Z,17.87
2023-02-13T06:31:35.500Z,19.10
2023-02-13T06:34:04.570Z,19.23
2023-02-13T06:36:34.939Z,18.43
2023-02-13T06:39:03.734Z,18.20
2023-02-13T06:41:32.723Z,20.10
2023-02-13T06:44:03.601Z,19.27
2023-02-13T06:46:34.284Z,17.70
2023-02-13T06:49:04.486Z,17.97
2023-02-13T06:51:39.113Z,17.83
2023-02-13T06:54:47.437Z,19.07
2023-02-13T06:57:24.548Z,18.23
2023-02-13T06:59:54.096Z,17.80
2023-02-13T07:02:31.443Z,19.47
2023-02-13T07:05:03.422Z,19.50
2023-02-13T07:07:41.011Z,17.60
2023-02-13T07:10:17.857Z,16.87
2023-02-13T07:13:04.917Z,24.83
2023-02-13T07:15:37.076Z,22.27
2023-02-13T07:18:09.445Z,20.57
2023-02-13T07:20:38.985Z,22.27
2023-02-13T07:23:09.844Z,20.37
2023-02-13T07:30:24.308Z,20.13
2023-02-13T07:33:14.021Z,15.23
2023-02-13T07:36:13.667Z,16.27
2023-02-13T07:38:46.702Z,15.33
2023-02-13T07:41:21.310Z,13.27
2023-02-13T07:43:50.213Z,12.97
2023-02-13T07:46:22.360Z,14.87
2023-02-13T07:48:53.637Z,22.97
2023-02-13T07:51:25.434Z,16.83
2023-02-13T07:53:57.355Z,13.53
2023-02-13T07:56:26.852Z,13.77
2023-02-13T07:58:58.006Z,13.33
2023-02-13T08:01:33.190Z,13.83
2023-02-13T08:04:05.090Z,13.00
2023-02-13T08:06:34.100Z,12.43
2023-02-13T08:10:01.896Z,12.33
2023-02-13T08:13:28.082Z,11.80
2023-02-13T08:17:35.693Z,12.20
2023-02-13T08:20:04.977Z,12.07
2023-02-13T08:22:33.968Z,11.20
2023-02-13T08:25:04.527Z,10.40
2023-02-13T08:27:36.020Z,10.73
2023-02-13T08:30:05.841Z,11.30
2023-02-13T08:32:44.876Z,11.47
2023-02-13T08:35:21.699Z,11.60
2023-02-13T08:37:50.686Z,10.53
2023-02-13T08:44:58.875Z,9.33
2023-02-13T08:47:28.404Z,11.07
2023-02-13T08:49:56.962Z,9.60
2023-02-13T08:52:25.532Z,10.30
2023-02-13T08:54:54.300Z,10.30
2023-02-13T08:57:23.105Z,9.47
2023-02-13T08:59:51.855Z,9.47
2023-02-13T09:02:21.997Z,9.37
2023-02-13T09:04:50.744Z,8.73
2023-02-13T09:07:19.537Z,8.57
2023-02-13T09:09:48.394Z,8.70
2023-02-13T09:12:21.095Z,9.67
2023-02-13T09:14:49.972Z,9.60
2023-02-13T09:17:19.832Z,9.57
2023-02-13T09:19:49.963Z,10.53
2023-02-13T09:22:18.770Z,12.10
2023-02-13T09:24:47.412Z,11.23
2023-02-13T09:27:16.108Z,12.33
2023-02-13T09:29:45.134Z,12.33
2023-02-13T09:32:13.981Z,11.43
2023-02-13T09:34:43.240Z,11.47
2023-02-13T09:37:13.471Z,11.20
2023-02-13T09:39:42.327Z,11.23
2023-02-13T09:42:19.856Z,11.20
2023-02-13T09:44:51.655Z,13.33
2023-02-13T09:47:31.425Z,12.27
2023-02-13T09:50:35.935Z,10.83
2023-02-13T09:53:22.366Z,10.97
2023-02-13T09:56:01.191Z,11.10
2023-02-13T09:59:25.492Z,11.00
2023-02-13T10:01:56.687Z,10.83
2023-02-13T10:04:33.461Z,11.07
2023-02-13T10:07:20.086Z,11.60
2023-02-13T10:09:58.424Z,10.60
2023-02-13T10:12:47.453Z,10.30
2023-02-13T10:15:23.337Z,11.23
2023-02-13T10:17:59.187Z,11.13
2023-02-13T10:20:33.568Z,11.33
2023-02-13T10:23:11.461Z,11.57
2023-02-13T10:25:50.106Z,11.43
2023-02-13T10:28:53.828Z,10.60
2023-02-13T10:31:25.689Z,10.80
2023-02-13T10:33:57.637Z,10.43
2023-02-13T10:36:37.869Z,11.27
2023-02-13T10:39:33.638Z,11.10
2023-02-13T10:42:46.002Z,10.67
2023-02-13T10:45:34.483Z,12.03
2023-02-13T10:48:16.000Z,11.60
2023-02-13T10:50:57.800Z,11.30
2023-02-13T10:53:36.364Z,10.83
2023-02-13T10:56:28.451Z,14.70
2023-02-13T10:59:31.846Z,10.93
2023-02-13T11:02:05.301Z,10.03
2023-02-13T11:04:34.329Z,11.10
2023-02-13T11:07:06.141Z,11.87
2023-02-13T11:09:42.682Z,11.10
2023-02-13T11:12:25.998Z,11.13
2023-02-13T11:15:01.589Z,13.73
2023-02-13T11:17:33.845Z,12.20
2023-02-13T11:20:27.659Z,14.10
2023-02-13T11:22:59.100Z,14.57
2023-02-13T11:25:30.239Z,14.60
2023-02-13T11:28:09.995Z,14.50
2023-02-13T11:30:40.797Z,16.23
2023-02-13T11:33:24.587Z,16.20
2023-02-13T11:36:07.642Z,15.77
2023-02-13T11:38:36.900Z,15.87
2023-02-13T11:41:09.969Z,14.77
2023-02-13T11:43:53.095Z,15.20
2023-02-13T11:46:26.092Z,14.63
2023-02-13T11:49:00.729Z,15.47
2023-02-13T11:51:41.884Z,14.03
2023-02-13T11:55:27.036Z,14.80
2023-02-13T11:57:59.294Z,13.77
2023-02-13T12:01:08.917Z,12.97
2023-02-13T12:03:48.500Z,12.17
2023-02-13T12:06:43.228Z,12.90
2023-02-13T12:10:05.361Z,11.93
2023-02-13T12:18:16.042Z,11.93
2023-02-13T12:22:04.742Z,12.30
2023-02-13T12:24:51.119Z,12.00
2023-02-13T12:27:27.490Z,11.77
2023-02-13T12:30:25.025Z,11.93
2023-02-13T12:33:29.408Z,11.73
2023-02-13T12:36:04.400Z,12.00
2023-02-13T12:38:57.675Z,11.10
2023-02-13T12:41:37.651Z,10.30
2023-02-13T12:44:38.135Z,11.30
2023-02-13T12:47:18.520Z,11.30
2023-02-13T12:50:15.064Z,10.73
2023-02-13T12:53:03.240Z,10.73
2023-02-13T12:56:01.117Z,11.13
2023-02-13T12:58:59.139Z,11.37
2023-02-13T13:02:16.640Z,11.20
2023-02-13T13:06:17.056Z,11.10
2023-02-13T13:09:22.326Z,9.00
2023-02-13T13:29:41.865Z,11.00
2023-02-13T13:41:52.432Z,7.60
2023-02-13T13:44:48.646Z,7.77
2023-02-13T13:48:31.022Z,8.27
2023-02-13T13:51:43.363Z,8.37
2023-02-13T13:54:51.871Z,7.60
2023-02-13T13:58:18.265Z,7.20
2023-02-13T14:01:34.784Z,7.47
2023-02-13T14:04:44.657Z,7.10
2023-02-13T14:07:46.206Z,7.90
2023-02-13T14:11:04.392Z,7.87
2023-02-13T14:13:39.799Z,7.73
2023-02-13T14:16:48.790Z,8.70
2023-02-13T14:19:55.752Z,7.40
2023-02-13T14:22:38.882Z,7.83
2023-02-13T14:25:25.169Z,7.43
2023-02-13T14:28:01.767Z,7.57
2023-02-13T14:30:34.376Z,7.40
2023-02-13T14:33:07.615Z,7.80
2023-02-13T14:35:38.947Z,7.30
2023-02-13T14:38:20.238Z,7.57
2023-02-13T14:40:49.441Z,8.40
2023-02-13T14:43:31.505Z,7.70
2023-02-13T14:46:25.844Z,7.33
2023-02-13T14:49:00.749Z,7.53
2023-02-13T14:51:37.300Z,7.13
2023-02-13T14:54:11.546Z,6.53
2023-02-13T14:56:52.126Z,7.30
2023-02-13T14:59:28.437Z,7.10
2023-02-13T15:02:43.334Z,7.37
2023-02-13T15:05:36.898Z,7.50
2023-02-13T15:08:20.574Z,7.10
2023-02-13T15:11:23.419Z,6.90
2023-02-13T15:13:56.417Z,7.13
2023-02-13T15:16:27.960Z,7.10
2023-02-13T15:19:12.010Z,6.90
2023-02-13T15:22:15.543Z,7.27
2023-02-13T15:32:46.211Z,6.73
2023-02-13T15:36:57.089Z,7.10
2023-02-13T15:39:52.309Z,6.90
2023-02-13T15:42:39.056Z,6.53
2023-02-13T15:50:02.730Z,7.47
2023-02-13T15:52:36.382Z,7.27
2023-02-13T15:55:08.667Z,7.20
2023-02-13T15:57:42.997Z,7.40
2023-02-13T16:00:20.310Z,7.70
2023-02-13T16:02:50.104Z,7.37
2023-02-13T16:05:29.398Z,7.37
2023-02-13T16:08:45.635Z,7.47
2023-02-13T16:11:47.950Z,7.33
2023-02-13T16:14:24.871Z,7.60
2023-02-13T16:17:03.537Z,7.27
2023-02-13T16:19:51.562Z,7.57
2023-02-13T16:22:53.968Z,8.37
2023-02-13T16:25:32.369Z,7.70
2023-02-13T16:28:03.681Z,8.07
2023-02-13T16:30:38.422Z,7.70
2023-02-13T16:33:30.288Z,8.07
2023-02-13T16:36:01.156Z,8.50
2023-02-13T16:38:55.239Z,10.40
2023-02-13T16:41:32.316Z,8.83
2023-02-13T16:44:02.147Z,9.07
2023-02-13T16:46:37.838Z,9.23
2023-02-13T16:49:26.627Z,9.77
2023-02-13T16:52:02.019Z,9.63
2023-02-13T16:54:38.228Z,8.73
2023-02-13T16:57:22.400Z,10.03
2023-02-13T17:00:03.011Z,9.60
2023-02-13T17:02:34.835Z,10.10
2023-02-13T17:05:21.610Z,11.23
2023-02-13T17:07:53.047Z,11.13
2023-02-13T17:10:26.397Z,9.80
2023-02-13T17:13:00.473Z,9.70
2023-02-13T17:16:22.538Z,10.03
2023-02-13T17:20:06.025Z,10.30
2023-02-13T17:24:44.906Z,9.37
2023-02-13T17:31:49.091Z,8.80
2023-02-13T17:39:47.147Z,9.20
2023-02-13T17:43:36.252Z,9.10
2023-02-13T17:55:23.700Z,10.53
2023-02-13T18:03:05.558Z,11.37
2023-02-13T18:16:20.373Z,12.60
2023-02-13T18:41:13.033Z,13.77
2023-02-13T19:07:06.498Z,16.57
2023-02-13T19:09:50.570Z,16.87
2023-02-13T19:12:28.473Z,17.00
2023-02-13T19:15:16.340Z,17.10
2023-02-13T19:18:25.636Z,16.10
2023-02-13T19:21:02.134Z,15.40
2023-02-13T19:23:33.175Z,13.90
2023-02-13T19:27:17.630Z,14.97
2023-02-13T19:29:46.333Z,15.70
2023-02-13T19:32:16.050Z,15.97
2023-02-13T19:35:15.399Z,16.10
2023-02-13T19:37:44.863Z,16.57
2023-02-13T19:40:15.955Z,17.10
2023-02-13T19:42:45.037Z,18.10
2023-02-13T19:45:14.087Z,17.23
2023-02-13T19:47:43.532Z,19.73
2023-02-13T19:50:12.970Z,19.70
2023-02-13T19:52:43.297Z,18.17
2023-02-13T19:55:12.636Z,18.57
2023-02-13T19:57:45.323Z,18.80
2023-02-13T20:00:15.797Z,18.90
2023-02-13T20:02:44.648Z,18.37
2023-02-13T20:05:16.856Z,19.13
2023-02-13T20:07:45.377Z,19.63
2023-02-13T20:10:14.234Z,19.33
2023-02-13T20:12:44.445Z,20.63
2023-02-13T20:15:13.086Z,20.90
2023-02-13T20:17:42.172Z,21.23
2023-02-13T20:20:11.931Z,21.10
2023-02-13T20:22:40.692Z,21.20
2023-02-13T20:25:10.018Z,22.67
2023-02-13T20:27:42.679Z,23.00
2023-02-13T20:30:15.844Z,23.53
2023-02-13T20:32:44.981Z,23.57
2023-02-13T20:35:13.697Z,25.20
2023-02-13T20:37:42.953Z,24.80
2023-02-13T20:40:12.553Z,25.17
2023-02-13T20:42:42.669Z,26.23
2023-02-13T20:45:13.237Z,28.03
2023-02-13T20:47:43.033Z,26.53
2023-02-13T20:50:12.197Z,27.03
2023-02-13T20:52:41.057Z,27.27
2023-02-13T20:55:10.237Z,29.30
2023-02-13T20:57:38.988Z,28.43
2023-02-13T21:00:12.249Z,29.63
2023-02-13T21:02:42.660Z,28.97
2023-02-13T21:05:11.357Z,28.87
2023-02-13T21:07:39.998Z,28.30
2023-02-13T21:10:10.306Z,28.50
2023-02-13T21:12:39.053Z,28.77
2023-02-13T21:15:08.316Z,29.10
2023-02-13T21:17:37.119Z,27.70
2023-02-13T21:20:08.821Z,27.73
2023-02-13T21:22:37.868Z,27.63
2023-02-13T21:25:07.335Z,27.83
2023-02-13T21:27:36.060Z,28.60
2023-02-13T21:30:05.440Z,26.80
2023-02-13T21:32:34.198Z,26.30
2023-02-13T21:35:03.014Z,26.23
2023-02-13T21:37:33.634Z,27.00
2023-02-13T21:40:02.357Z,27.87
2023-02-13T21:42:30.968Z,28.30
2023-02-13T21:44:59.700Z,27.17
2023-02-13T21:47:28.459Z,27.03
2023-02-13T21:49:57.081Z,27.33
2023-02-13T21:52:26.273Z,26.07
2023-02-13T21:54:56.529Z,27.53
2023-02-13T21:57:25.171Z,26.63
2023-02-13T21:59:53.885Z,26.20
2023-02-13T22:02:22.731Z,27.93
2023-02-13T22:04:51.612Z,27.03
2023-02-13T22:11:15.486Z,26.67
2023-02-13T22:14:00.661Z,26.53
2023-02-13T22:23:26.228Z,28.00
2023-02-13T22:26:25.708Z,27.30
2023-02-13T22:29:06.002Z,27.43
2023-02-13T22:31:40.667Z,27.30
2023-02-13T22:34:25.231Z,26.40
2023-02-13T22:37:12.078Z,27.00
2023-02-13T22:40:11.742Z,27.63
2023-02-13T22:43:09.063Z,27.07
2023-02-13T22:56:58.574Z,26.77
2023-02-13T22:59:47.869Z,26.27
2023-02-13T23:02:54.906Z,26.87
2023-02-13T23:05:46.974Z,25.77
2023-02-13T23:08:43.305Z,26.17
2023-02-13T23:14:47.798Z,25.67
2023-02-13T23:18:08.985Z,24.63
2023-02-13T23:20:38.731Z,25.80
2023-02-13T23:23:08.274Z,25.97
2023-02-13T23:25:40.309Z,25.17
2023-02-13T23:28:09.966Z,25.90
2023-02-13T23:30:43.402Z,24.40
2023-02-13T23:33:13.854Z,24.70
2023-02-13T23:35:43.183Z,24.40
2023-02-13T23:38:12.599Z,24.90
2023-02-13T23:40:41.697Z,25.07
2023-02-13T23:43:10.655Z,26.40
2023-02-13T23:45:39.830Z,25.10
2023-02-13T23:48:13.506Z,25.27
2023-02-13T23:50:59.048Z,25.93
2023-02-13T23:53:29.956Z,24.60
2023-02-13T23:56:02.014Z,24.83
2023-02-13T23:58:52.740Z,25.90
